• Join FlightAware (Why Join?)
  • Login
  • US Flag 
12:42PM EDT


 

Airport Tracker/Info


-or-


 

Live Flight TrackerFlight Track Log ✈ N244A ✈ 10-Jul-2013 ✈ KABQ - KFTW

Flight Track Log - Related Links

Times and Time Zones

All times are in EDT time to prevent confusion due to time zone crossing. See the N244A flight status page for this flight to view local times or setup timezone preferences in your user account.

Time Position Orientation Groundspeed Altitude Reporting Facility
EDT Latitude Longitude Course Direction KTS MPH feet Rate Location/Type
10:07AM 35.0192 -106.5258 121° Southeast 226 260 8,000  Level Albuquerque Center
10:08AM 34.9831 -106.5178 170° South 230 265 9,400 2,160 Climbing Albuquerque Center
10:09AM 34.9244 -106.4753 149° Southeast 258 297 11,500 1,920 Climbing Albuquerque Center
10:10AM 34.8817 -106.3858 120° Southeast 301 346 13,400 1,320 Climbing Albuquerque Center
10:11AM 34.8294 -106.2817 121° Southeast 353 406 14,300 1,260 Climbing Albuquerque Center
10:12AM 34.7717 -106.1661 121° Southeast 386 444 16,000 1,560 Climbing Albuquerque Center
10:13AM 34.7517 -106.0314 100° East 400 460 17,600 1,440 Climbing Albuquerque Center
10:14AM 34.7439 -105.8672 93° East 412 474 19,000 1,380 Climbing Albuquerque Center
10:15AM 34.7331 -105.7236 95° East 421 484 20,500 1,440 Climbing Albuquerque Center
10:16AM 34.7222 -105.5794 95° East 424 488 22,000 1,320 Climbing Albuquerque Center
10:17AM 34.7133 -105.4328 94° East 430 495 23,300 1,260 Climbing Albuquerque Center
10:18AM 34.7008 -105.2856 96° East 434 499 24,700 1,260 Climbing Albuquerque Center
10:19AM 34.6911 -105.1381 95° East 436 502 26,000 1,200 Climbing Albuquerque Center
10:20AM 34.6803 -104.9922 95° East 432 497 27,300 1,200 Climbing Albuquerque Center
10:21AM 34.6686 -104.8475 96° East 430 495 28,600 1,200 Climbing Albuquerque Center
10:22AM 34.6544 -104.6797 96° East 427 491 29,800 1,020 Climbing Albuquerque Center
10:23AM 34.6447 -104.5356 95° East 426 490 30,700 840 Climbing Albuquerque Center
10:24AM 34.6308 -104.3883 96° East 433 498 31,600 780 Climbing Albuquerque Center
10:25AM 34.6197 -104.2406 95° East 437 503 32,400 720 Climbing Albuquerque Center
10:26AM 34.6072 -104.0919 96° East 440 506 33,200 720 Climbing Albuquerque Center
10:27AM 34.5936 -103.9414 96° East 444 511 33,900 660 Climbing Albuquerque Center
10:28AM 34.5819 -103.7925 95° East 444 511 34,600 480 Climbing Albuquerque Center
10:29AM 34.5650 -103.6156 97° East 448 516 35,000 180 Climbing Albuquerque Center
10:30AM 34.5514 -103.4617 96° East 454 522 35,000  Level Albuquerque Center
10:31AM 34.5364 -103.3042 97° East 464 534 35,000  Level Albuquerque Center
10:32AM 34.5222 -103.1442 96° East 472 543 35,000  Level Albuquerque Center
10:33AM 34.5072 -102.9819 96° East 479 551 35,000  Level Albuquerque Center
10:34AM 34.4892 -102.8103 97° East 481 554 35,000  Level Albuquerque Center
10:36AM 34.4756 -102.6514 96° East 478 550 35,000  Level Albuquerque Center
10:37AM 34.4594 -102.4956 97° East 473 544 35,000  Level Albuquerque Center
10:38AM 34.4433 -102.3400 97° East 470 541 35,000  Level Albuquerque Center
10:39AM 34.4228 -102.1531 98° East 470 541 35,000  Level Albuquerque Center
10:40AM 34.4058 -101.9969 97° East 470 541 35,000  Level Albuquerque Center
10:41AM 34.3889 -101.8408 97° East 471 542 35,000  Level Albuquerque Center
10:42AM 34.3717 -101.6858 98° East 470 541 35,000  Level Albuquerque Center
10:43AM 34.3547 -101.5303 97° East 469 540 35,000  Level Albuquerque Center
10:44AM 34.3339 -101.3450 98° East 467 537 35,000  Level Albuquerque Center
10:45AM 34.3169 -101.1917 98° East 466 536 35,000  Level Albuquerque Center
10:46AM 34.2986 -101.0372 98° East 465 535 35,000  Level Albuquerque Center
10:47AM 34.2764 -100.8517 98° East 465 535 35,000  Level Fort Worth Center
10:48AM 34.2594 -100.6978 98° East 465 535 35,000  Level Fort Worth Center
10:49AM 34.2428 -100.5414 97° East 465 535 35,000  Level Fort Worth Center
10:50AM 34.2081 -100.4219 109° East 465 535 35,000 -60 Level Fort Worth Center
10:51AM 34.1492 -100.2644 114° Southeast 470 541 34,900 -780 Descending Fort Worth Center
10:52AM 34.1022 -100.1200 111° Southeast 475 547 33,500 -1,440 Descending Fort Worth Center
10:53AM 34.0511 -99.9703 112° Southeast 475 547 32,100 -1,740 Descending Fort Worth Center
10:54AM 34.0019 -99.8186 111° Southeast 482 555 30,100 -2,100 Descending Fort Worth Center
10:55AM 33.9506 -99.6694 113° Southeast 482 555 27,900 -1,860 Descending Fort Worth Center
10:56AM 33.8969 -99.5128 112° Southeast 476 548 26,400 -1,560 Descending Fort Worth Center
10:57AM 33.8450 -99.3717 114° Southeast 471 542 24,800 -1,200 Descending Fort Worth Center
10:58AM 33.8011 -99.2356 111° Southeast 456 525 24,000 -420 Descending Fort Worth Center
10:59AM 33.7550 -99.1072 113° Southeast 435 501 24,000  Level Fort Worth Center
11:00AM 33.7147 -98.9917 113° Southeast 417 480 24,000  Level Fort Worth Center
11:01AM 33.6683 -98.8586 113° Southeast 417 480 24,000  Level Fort Worth Center
11:02AM 33.6217 -98.7231 112° Southeast 422 486 24,000 -900 Level Fort Worth Center
11:03AM 33.5669 -98.5703 113° Southeast 440 506 22,200 -1,860 Descending Fort Worth Center
11:04AM 33.5200 -98.4475 115° Southeast 447 514 20,300 -2,100 Descending Fort Worth Center
11:05AM 33.4750 -98.3175 113° Southeast 427 491 18,100 -2,640 Descending Fort Worth Center
11:06AM 33.4300 -98.1900 113° Southeast 389 448 15,100 -2,640 Descending Fort Worth Center
11:07AM 33.3869 -98.0778 115° Southeast 379 436 12,900 -2,100 Descending Fort Worth Center
11:08AM 33.3539 -97.9781 112° Southeast 351 404 11,000 -2,160 Descending Fort Worth Center
11:09AM 33.3189 -97.8833 114° Southeast 312 359 8,600 -1,500 Descending Fort Worth Center
11:10AM 33.2878 -97.7961 113° Southeast 286 329 8,000 -480 Descending Fort Worth Center
11:11AM 33.2506 -97.7189 120° Southeast 275 316 7,700 -1,080 Descending Fort Worth Center
11:12AM 33.1839 -97.6617 144° Southeast 284 327 5,900 -1,680 Descending Fort Worth Center
11:13AM 33.1500 -97.6167 132° Southeast 290 334 5,100 -960 Descending Dallas / Fort Worth TRACON
11:14AM 33.1000 -97.5667 140° Southeast 260 299 4,500 -780 Descending Dallas / Fort Worth TRACON
11:15AM 33.0169 -97.4953 144° Southeast 267 307 3,300 -660 Descending Fort Worth Center
11:16AM 32.9628 -97.4406 140° Southeast 249 287 3,000 -360 Descending Fort Worth Center
11:17AM 32.9272 -97.4036 139° Southeast 212 244 2,600 -600 Descending Fort Worth Center
11:18AM 32.8897 -97.3739 146° Southeast 167 192 1,900 -720 Descending Fort Worth Center
11:19AM 32.8564 -97.3689 173° South 139 160 1,200 3,000 Descending Fort Worth Center
11:20AM 32.7769 -97.4133 205° Southwest 133 153 8,000 3,360 Climbing Fort Worth Center
11:21AM 32.7792 -97.4133 360° North 126 145 8,000  Level Fort Worth Center
11:22AM 32.7769 -97.4133 180° South 17 20 8,000  Level Fort Worth Center
11:23AM 32.7769 -97.4133 328° Northwest 28 32 8,000  Level Fort Worth Center
11:25AM 32.8167 -97.3500 40° Northeast  Level FlightAware Approximate
11:32AM 32.8198 -97.3624 40° Northeast  Level Estimated
11:33AM 32.8198 -97.3624 40° Northeast  Level Estimated
11:34AM 32.8198 -97.3624 40° Northeast  Level Estimated